Bailey, North Carolina
Current Conditions -  °F | °C
As of 2:53 PM on Thursday 18 Dec 2014 (Local Time) from KRWI Reporting Station
Overcast Overcast  
Wind Chill: 50°   Ceiling: 10000
Heat Index: 50°   Visibility: 10mi
Dew Point: 25°   Wind: 0mph
Humidity: 38%   Direction: NA
Pressure: 30.09"   Gusts: NA
Location:  35.78°N, 78.12°W
Report Text: KRWI 181953Z AUTO 00000KT 10SM OVC100 10/M04 A3009 RMK AO2 SLP190 T01001039
Loading
Personal Weather Stations






























Interactive Weather Map New forecast layout! Learn more

10-Day Weather Forecast

Advertisements
Track Severe Weather on mobile